createdAt,value
2022-12-11T00:00:28.704Z,-4.23
2022-12-11T00:02:56.698Z,-4.33
2022-12-11T00:05:24.115Z,-4.25
2022-12-11T00:07:50.959Z,-4.21
2022-12-11T00:10:17.876Z,-4.08
2022-12-11T00:12:44.577Z,-4.10
2022-12-11T00:15:11.662Z,-4.36
2022-12-11T00:17:38.831Z,-4.29
2022-12-11T00:20:09.222Z,-4.21
2022-12-11T00:22:35.943Z,-4.20
2022-12-11T00:25:02.649Z,-4.41
2022-12-11T00:27:29.641Z,-4.26
2022-12-11T00:29:56.354Z,-4.18
2022-12-11T00:32:23.032Z,-4.47
2022-12-11T00:34:56.294Z,-4.39
2022-12-11T00:37:23.602Z,-4.26
2022-12-11T00:43:04.454Z,-4.17
2022-12-11T00:45:31.234Z,-4.17
2022-12-11T00:47:57.923Z,-4.07
2022-12-11T00:50:24.633Z,-4.07
2022-12-11T00:52:51.343Z,-4.04
2022-12-11T00:55:18.363Z,-4.06
2022-12-11T00:57:45.020Z,-4.07
2022-12-11T01:00:12.899Z,-4.19
2022-12-11T01:02:39.659Z,-4.13
2022-12-11T01:05:06.829Z,-4.52
2022-12-11T01:07:33.497Z,-4.36
2022-12-11T01:10:18.737Z,-4.29
2022-12-11T01:12:45.497Z,-4.20
2022-12-11T01:15:12.562Z,-4.07
2022-12-11T01:17:43.242Z,-4.07
2022-12-11T01:20:10.273Z,-4.10
2022-12-11T01:22:36.934Z,-4.11
2022-12-11T01:25:04.183Z,-4.12
2022-12-11T01:27:31.144Z,-4.32
2022-12-11T01:29:57.836Z,-4.49
2022-12-11T01:32:24.631Z,-4.43
2022-12-11T01:34:51.408Z,-4.40
2022-12-11T01:37:18.117Z,-4.62
2022-12-11T01:39:44.747Z,-4.63
2022-12-11T01:42:17.957Z,-4.59
2022-12-11T01:44:47.141Z,-4.55
2022-12-11T01:47:14.130Z,-4.79
2022-12-11T01:49:41.934Z,-4.77
2022-12-11T01:52:15.533Z,-4.69
2022-12-11T01:54:45.781Z,-4.72
2022-12-11T01:57:15.399Z,-4.91
2022-12-11T01:59:46.502Z,-4.82
2022-12-11T02:02:24.903Z,-5.10
2022-12-11T02:04:51.738Z,-5.16
2022-12-11T02:07:18.418Z,-5.13
2022-12-11T02:09:47.690Z,-5.03
2022-12-11T02:12:18.687Z,-5.40
2022-12-11T02:14:45.318Z,-5.26
2022-12-11T02:17:23.730Z,-5.26
2022-12-11T02:20:15.442Z,-5.24
2022-12-11T02:22:55.187Z,-5.17
2022-12-11T02:25:33.784Z,-5.18
2022-12-11T02:28:24.370Z,-5.49
2022-12-11T02:30:57.238Z,-5.71
2022-12-11T02:33:37.168Z,-5.59
2022-12-11T02:36:05.513Z,-5.44
2022-12-11T02:38:36.172Z,-5.49
2022-12-11T02:41:05.667Z,-5.50
2022-12-11T02:43:34.397Z,-5.49
2022-12-11T02:46:05.826Z,-5.51
2022-12-11T02:48:34.298Z,-5.48
2022-12-11T02:51:01.897Z,-5.50
2022-12-11T02:53:32.372Z,-5.51
2022-12-11T02:56:24.591Z,-5.50
2022-12-11T02:58:59.232Z,-5.53
2022-12-11T03:01:27.441Z,-5.56
2022-12-11T03:03:55.445Z,-5.60
2022-12-11T03:06:26.826Z,-5.57
2022-12-11T03:08:55.138Z,-5.60
2022-12-11T03:11:21.928Z,-5.58
2022-12-11T03:13:48.789Z,-5.67
2022-12-11T03:16:32.451Z,-5.90
2022-12-11T03:19:03.049Z,-5.92
2022-12-11T03:21:40.441Z,-6.04
2022-12-11T03:24:14.298Z,-6.15
2022-12-11T03:26:45.504Z,-6.00
2022-12-11T03:29:20.200Z,-5.89
2022-12-11T03:32:03.527Z,-5.81
2022-12-11T03:34:37.595Z,-5.66
2022-12-11T03:37:06.381Z,-5.57
2022-12-11T03:39:38.498Z,-5.57
2022-12-11T03:42:08.332Z,-5.81
2022-12-11T03:44:36.492Z,-5.78
2022-12-11T03:47:06.547Z,-6.00
2022-12-11T03:49:41.363Z,-6.06
2022-12-11T03:52:11.626Z,-5.89
2022-12-11T03:54:40.172Z,-5.76
2022-12-11T03:57:10.000Z,-5.65
2022-12-11T03:59:36.871Z,-5.59
2022-12-11T04:02:11.257Z,-5.58
2022-12-11T04:04:39.366Z,-5.46
2022-12-11T04:07:06.708Z,-5.45
2022-12-11T04:09:34.010Z,-5.57
2022-12-11T04:12:01.037Z,-5.39
2022-12-11T04:14:46.320Z,-5.41
2022-12-11T04:17:32.974Z,-5.53
2022-12-11T04:20:18.585Z,-5.90
2022-12-11T04:23:03.991Z,-5.95
2022-12-11T04:25:30.701Z,-6.06
2022-12-11T04:27:57.428Z,-6.14
2022-12-11T04:30:32.334Z,-6.40
2022-12-11T04:33:01.095Z,-6.36
2022-12-11T04:35:28.097Z,-6.20
2022-12-11T04:37:54.842Z,-6.14
2022-12-11T04:40:21.916Z,-6.20
2022-12-11T04:42:48.780Z,-6.08
2022-12-11T04:45:15.472Z,-6.11
2022-12-11T04:47:42.591Z,-6.38
2022-12-11T04:50:12.325Z,-6.29
2022-12-11T04:52:39.177Z,-6.35
2022-12-11T04:55:07.642Z,-6.46
2022-12-11T04:57:34.996Z,-6.30
2022-12-11T05:00:02.169Z,-6.21
2022-12-11T05:02:28.991Z,-6.54
2022-12-11T05:04:55.799Z,-6.33
2022-12-11T05:07:22.490Z,-6.36
2022-12-11T05:09:49.222Z,-6.57
2022-12-11T05:12:15.859Z,-6.42
2022-12-11T05:14:42.551Z,-6.35
2022-12-11T05:17:09.297Z,-6.45
2022-12-11T05:19:36.026Z,-6.42
2022-12-11T05:22:02.683Z,-6.43
2022-12-11T05:24:29.541Z,-6.43
2022-12-11T05:26:56.246Z,-6.87
2022-12-11T05:29:23.183Z,-6.91
2022-12-11T05:31:50.130Z,-6.62
2022-12-11T05:34:16.905Z,-6.65
2022-12-11T05:36:43.558Z,-6.85
2022-12-11T05:39:12.048Z,-6.63
2022-12-11T05:41:38.970Z,-6.69
2022-12-11T05:44:05.980Z,-6.75
2022-12-11T05:46:32.800Z,-6.75
2022-12-11T05:49:03.971Z,-6.72
2022-12-11T05:51:31.646Z,-6.71
2022-12-11T05:53:58.461Z,-6.83
2022-12-11T05:56:33.534Z,-6.68
2022-12-11T05:59:04.032Z,-6.61
2022-12-11T06:01:34.908Z,-6.57
2022-12-11T06:04:02.298Z,-6.42
2022-12-11T06:06:29.370Z,-6.38
2022-12-11T06:08:57.659Z,-6.34
2022-12-11T06:11:26.124Z,-6.29
2022-12-11T06:13:53.316Z,-6.33
2022-12-11T06:16:21.024Z,-6.24
2022-12-11T06:18:48.534Z,-6.12
2022-12-11T06:21:27.921Z,-6.03
2022-12-11T06:23:56.799Z,-6.11
2022-12-11T06:26:24.170Z,-5.99
2022-12-11T06:28:51.153Z,-6.16
2022-12-11T06:31:19.043Z,-6.51
2022-12-11T06:33:46.508Z,-6.78
2022-12-11T06:36:16.363Z,-6.62
2022-12-11T06:38:43.848Z,-6.46
2022-12-11T06:41:11.518Z,-6.30
2022-12-11T06:43:40.360Z,-6.33
2022-12-11T06:46:13.051Z,-6.38
2022-12-11T06:48:42.319Z,-6.47
2022-12-11T06:51:12.399Z,-6.39
2022-12-11T06:53:40.070Z,-6.39
2022-12-11T06:56:13.063Z,-6.58
2022-12-11T06:58:41.615Z,-6.64
2022-12-11T07:01:26.286Z,-6.55
2022-12-11T07:03:58.345Z,-6.68
2022-12-11T07:06:26.972Z,-6.69
2022-12-11T07:08:53.772Z,-7.00
2022-12-11T07:11:21.760Z,-6.78
2022-12-11T07:13:48.976Z,-6.60
2022-12-11T07:16:17.018Z,-6.56
2022-12-11T07:18:48.114Z,-6.47
2022-12-11T07:21:15.181Z,-6.55
2022-12-11T07:23:42.603Z,-6.86
2022-12-11T07:26:16.149Z,-6.73
2022-12-11T07:28:43.401Z,-6.74
2022-12-11T07:31:13.498Z,-6.61
2022-12-11T07:33:41.546Z,-6.59
2022-12-11T07:36:11.903Z,-6.54
2022-12-11T07:38:39.491Z,-6.53
2022-12-11T07:41:09.235Z,-6.51
2022-12-11T07:43:38.534Z,-6.70
2022-12-11T07:46:08.213Z,-6.62
2022-12-11T07:48:35.994Z,-6.65
2022-12-11T07:51:11.296Z,-6.61
2022-12-11T07:53:38.802Z,-6.56
2022-12-11T07:56:05.896Z,-6.62
2022-12-11T07:58:32.851Z,-6.72
2022-12-11T08:00:59.657Z,-6.59
2022-12-11T08:03:26.455Z,-6.71
2022-12-11T08:05:53.543Z,-6.60
2022-12-11T08:08:20.565Z,-6.43
2022-12-11T08:10:47.399Z,-6.20
2022-12-11T08:13:14.443Z,-6.13
2022-12-11T08:15:41.709Z,-5.98
2022-12-11T08:18:11.117Z,-5.96
2022-12-11T08:20:39.296Z,-5.82
2022-12-11T08:23:06.175Z,-5.76
2022-12-11T08:25:33.061Z,-5.70
2022-12-11T08:27:59.792Z,-5.48
2022-12-11T08:30:26.512Z,-5.26
2022-12-11T08:32:53.355Z,-5.24
2022-12-11T08:35:20.114Z,-5.16
2022-12-11T08:37:47.491Z,-4.97
2022-12-11T08:40:14.471Z,-4.94
2022-12-11T08:42:41.297Z,-4.80
2022-12-11T08:45:12.065Z,-4.79
2022-12-11T08:47:39.029Z,-4.68
2022-12-11T08:50:06.204Z,-4.57
2022-12-11T08:52:34.961Z,-4.27
2022-12-11T08:55:01.791Z,-4.21
2022-12-11T08:57:28.850Z,-4.14
2022-12-11T08:59:55.533Z,-4.03
2022-12-11T09:02:22.377Z,-4.00
2022-12-11T09:04:49.131Z,-3.99
2022-12-11T09:07:15.889Z,-3.85
2022-12-11T09:09:49.705Z,-3.83
2022-12-11T09:12:17.178Z,-3.66
2022-12-11T09:14:44.118Z,-3.52
2022-12-11T09:17:10.772Z,-3.54
2022-12-11T09:19:37.584Z,-3.42
2022-12-11T09:22:04.238Z,-3.95
2022-12-11T09:24:31.020Z,-4.14
2022-12-11T09:26:57.714Z,-4.02
2022-12-11T09:29:24.503Z,-3.75
2022-12-11T09:31:51.200Z,-3.38
2022-12-11T09:34:17.965Z,-3.14
2022-12-11T09:36:44.769Z,-2.94
2022-12-11T09:39:13.042Z,-2.83
2022-12-11T09:41:42.982Z,-2.91
2022-12-11T09:44:15.507Z,-2.65
2022-12-11T09:46:43.533Z,-2.43
2022-12-11T09:49:41.290Z,-2.24
2022-12-11T09:52:15.765Z,-2.13
2022-12-11T09:54:50.538Z,-2.12
2022-12-11T09:57:25.828Z,-2.16
2022-12-11T10:00:05.556Z,-2.00
2022-12-11T10:02:50.733Z,-1.87
2022-12-11T10:05:20.240Z,-1.87
2022-12-11T10:08:17.225Z,-1.90
2022-12-11T10:10:54.208Z,-1.83
2022-12-11T10:14:11.550Z,-1.95
2022-12-11T10:16:46.645Z,-2.14
2022-12-11T10:19:20.447Z,-2.21
2022-12-11T10:21:51.576Z,-2.16
2022-12-11T10:25:05.652Z,-2.17
2022-12-11T10:27:22.307Z,-2.13
2022-12-11T10:33:07.855Z,-2.04
2022-12-11T10:38:45.215Z,-2.18
2022-12-11T10:41:17.027Z,-2.25
2022-12-11T10:43:46.353Z,-2.14
2022-12-11T10:46:20.470Z,-2.14
2022-12-11T10:48:54.676Z,-2.22
2022-12-11T10:51:24.275Z,-2.04
2022-12-11T10:54:02.627Z,-1.99
2022-12-11T10:56:35.127Z,-2.03
2022-12-11T10:59:02.325Z,-1.96
2022-12-11T11:01:34.865Z,-2.06
2022-12-11T11:04:15.326Z,-2.02
2022-12-11T11:06:47.207Z,-1.96
2022-12-11T11:09:30.612Z,-1.89
2022-12-11T11:11:57.504Z,-1.58
2022-12-11T11:14:24.237Z,-1.47
2022-12-11T11:16:58.419Z,-1.56
2022-12-11T11:19:29.498Z,-1.53
2022-12-11T11:22:04.969Z,-1.53
2022-12-11T11:24:43.437Z,-1.39
2022-12-11T11:27:28.552Z,-1.36
2022-12-11T11:29:59.172Z,-1.24
2022-12-11T11:32:39.021Z,-1.13
2022-12-11T11:35:17.512Z,-1.23
2022-12-11T11:38:09.589Z,-1.12
2022-12-11T11:41:04.796Z,-1.13
2022-12-11T11:43:43.271Z,-1.10
2022-12-11T11:46:12.964Z,-1.02
2022-12-11T11:48:48.623Z,-1.03
2022-12-11T11:51:55.530Z,-1.02
2022-12-11T11:54:33.733Z,-1.01
2022-12-11T11:57:11.575Z,-1.07
2022-12-11T11:59:49.927Z,-1.06
2022-12-11T12:02:18.545Z,-1.06
2022-12-11T12:04:51.572Z,-1.09
2022-12-11T12:07:18.464Z,-1.17
2022-12-11T12:09:57.306Z,-1.08
2022-12-11T12:13:03.418Z,-1.17
2022-12-11T12:15:57.709Z,-1.16
2022-12-11T12:18:45.498Z,-1.17
2022-12-11T12:21:33.827Z,-1.14
2022-12-11T12:24:12.286Z,-1.12
2022-12-11T12:26:47.647Z,-1.06
2022-12-11T12:29:17.623Z,-1.10
2022-12-11T12:32:00.920Z,-1.13
2022-12-11T12:34:54.264Z,-1.21
2022-12-11T12:37:30.179Z,-1.16
2022-12-11T12:40:02.205Z,-1.17
2022-12-11T12:42:40.666Z,-1.04
2022-12-11T12:45:07.354Z,-1.00
2022-12-11T12:47:36.017Z,-1.01
2022-12-11T12:50:03.918Z,-0.93
2022-12-11T12:52:39.760Z,-0.96
2022-12-11T12:55:28.808Z,-0.98
2022-12-11T12:58:00.668Z,-1.13
2022-12-11T13:00:38.692Z,-1.15
2022-12-11T13:03:17.181Z,-1.12
2022-12-11T13:05:55.466Z,-1.15
2022-12-11T13:08:34.791Z,-1.08
2022-12-11T13:11:06.056Z,-1.12
2022-12-11T13:13:39.944Z,-1.12
2022-12-11T13:16:15.851Z,-1.06
2022-12-11T13:18:45.813Z,-1.05
2022-12-11T13:21:35.901Z,-1.02
2022-12-11T13:24:25.658Z,-1.23
2022-12-11T13:26:52.435Z,-1.19
2022-12-11T13:29:45.662Z,-1.19
2022-12-11T13:32:18.708Z,-1.08
2022-12-11T13:34:55.556Z,-1.01
2022-12-11T13:37:47.499Z,-0.90
2022-12-11T13:40:25.915Z,-0.83
2022-12-11T13:43:15.951Z,-0.84
2022-12-11T13:45:42.693Z,-0.77
2022-12-11T13:48:29.775Z,-0.70
2022-12-11T13:50:58.240Z,-0.68
2022-12-11T13:53:25.424Z,-0.62
2022-12-11T13:56:05.790Z,-0.61
2022-12-11T13:58:39.129Z,-0.63
2022-12-11T14:01:18.893Z,-0.66
2022-12-11T14:03:58.162Z,-0.69
2022-12-11T14:06:28.056Z,-0.70
2022-12-11T14:08:59.029Z,-0.78
2022-12-11T14:11:36.313Z,-0.83
2022-12-11T14:14:06.765Z,-0.85
2022-12-11T14:16:33.968Z,-0.92
2022-12-11T14:19:08.615Z,-0.94
2022-12-11T14:21:37.462Z,-1.08
2022-12-11T14:24:06.641Z,-1.26
2022-12-11T14:26:35.071Z,-1.37
2022-12-11T14:29:02.988Z,-1.47
2022-12-11T14:31:31.724Z,-1.54
2022-12-11T14:34:06.845Z,-1.64
2022-12-11T14:36:36.055Z,-1.74
2022-12-11T14:39:07.682Z,-1.85
2022-12-11T14:42:03.045Z,-1.92
2022-12-11T14:44:33.576Z,-1.98
2022-12-11T14:47:23.532Z,-2.03
2022-12-11T14:50:07.913Z,-2.14
2022-12-11T14:52:42.471Z,-2.20
2022-12-11T14:55:24.544Z,-2.25
2022-12-11T14:57:57.189Z,-2.34
2022-12-11T15:00:27.568Z,-2.36
2022-12-11T15:03:06.764Z,-2.40
2022-12-11T15:05:40.651Z,-2.48
2022-12-11T15:08:10.843Z,-2.53
2022-12-11T15:10:41.545Z,-2.58
2022-12-11T15:13:09.440Z,-2.68
2022-12-11T15:15:46.656Z,-2.74
2022-12-11T15:18:21.693Z,-2.83
2022-12-11T15:20:58.346Z,-2.95
2022-12-11T15:23:25.434Z,-3.26
2022-12-11T15:25:58.110Z,-3.47
2022-12-11T15:28:35.899Z,-3.50
2022-12-11T15:31:06.545Z,-3.44
2022-12-11T15:33:34.708Z,-3.43
2022-12-11T15:36:06.865Z,-3.43
2022-12-11T15:38:41.200Z,-3.43
2022-12-11T15:41:17.128Z,-3.43
2022-12-11T15:43:44.875Z,-3.52
2022-12-11T15:46:11.672Z,-3.54
2022-12-11T15:48:38.500Z,-3.55
2022-12-11T15:51:05.498Z,-3.58
2022-12-11T15:53:32.244Z,-3.56
2022-12-11T15:55:59.576Z,-3.63
2022-12-11T15:58:27.400Z,-3.92
2022-12-11T16:00:54.377Z,-4.07
2022-12-11T16:03:22.775Z,-3.94
2022-12-11T16:05:51.436Z,-3.89
2022-12-11T16:08:21.344Z,-3.86
2022-12-11T16:10:48.767Z,-3.81
2022-12-11T16:13:15.484Z,-3.77
2022-12-11T16:15:45.552Z,-3.96
2022-12-11T16:18:15.751Z,-4.06
2022-12-11T16:20:44.611Z,-3.96
2022-12-11T16:23:12.938Z,-3.89
2022-12-11T16:25:41.904Z,-3.86
2022-12-11T16:28:11.060Z,-4.12
2022-12-11T16:30:38.383Z,-4.19
2022-12-11T16:33:12.917Z,-4.17
2022-12-11T16:35:42.488Z,-4.06
2022-12-11T16:38:10.263Z,-4.00
2022-12-11T16:40:38.254Z,-3.97
2022-12-11T16:43:05.427Z,-4.12
2022-12-11T16:45:32.633Z,-4.13
2022-12-11T16:48:05.282Z,-4.12
2022-12-11T16:50:32.468Z,-4.38
2022-12-11T16:52:59.399Z,-4.47
2022-12-11T16:55:26.524Z,-4.42
2022-12-11T16:57:53.508Z,-4.30
2022-12-11T17:00:21.123Z,-4.28
2022-12-11T17:02:48.529Z,-4.05
2022-12-11T17:05:15.481Z,-3.88
2022-12-11T17:07:42.258Z,-3.77
2022-12-11T17:10:09.173Z,-3.86
2022-12-11T17:12:36.015Z,-3.71
2022-12-11T17:15:03.673Z,-3.57
2022-12-11T17:17:31.124Z,-3.48
2022-12-11T17:19:57.998Z,-3.40
2022-12-11T17:22:25.269Z,-3.48
2022-12-11T17:24:52.185Z,-3.43
2022-12-11T17:27:20.110Z,-3.31
2022-12-11T17:29:49.600Z,-3.24
2022-12-11T17:32:17.664Z,-3.19
2022-12-11T17:34:45.653Z,-3.37
2022-12-11T17:37:12.408Z,-3.45
2022-12-11T17:39:39.157Z,-3.34
2022-12-11T17:42:27.344Z,-3.31
2022-12-11T17:44:55.637Z,-3.28
2022-12-11T17:47:22.798Z,-3.24
2022-12-11T17:49:49.595Z,-3.43
2022-12-11T17:52:16.581Z,-3.53
2022-12-11T17:54:43.646Z,-3.43
2022-12-11T17:57:10.356Z,-3.39
2022-12-11T17:59:37.870Z,-3.40
2022-12-11T18:02:04.671Z,-3.36
2022-12-11T18:04:31.519Z,-3.35
2022-12-11T18:06:58.859Z,-3.42
2022-12-11T18:09:25.718Z,-3.41
2022-12-11T18:11:53.017Z,-3.60
2022-12-11T18:14:19.732Z,-3.54
2022-12-11T18:16:46.398Z,-3.56
2022-12-11T18:19:13.940Z,-3.57
2022-12-11T18:21:45.648Z,-3.53
2022-12-11T18:24:12.526Z,-3.48
2022-12-11T18:26:42.069Z,-3.60
2022-12-11T18:29:17.785Z,-3.63
2022-12-11T18:31:44.884Z,-3.62
2022-12-11T18:34:11.704Z,-3.55
2022-12-11T18:36:40.734Z,-3.53
2022-12-11T18:39:07.739Z,-3.65
2022-12-11T18:41:36.386Z,-3.56
2022-12-11T18:44:09.697Z,-3.50
2022-12-11T18:46:37.519Z,-3.51
2022-12-11T18:49:04.276Z,-3.52
2022-12-11T18:51:31.169Z,-3.59
2022-12-11T18:53:58.057Z,-3.65
2022-12-11T18:56:25.905Z,-3.71
2022-12-11T18:58:52.698Z,-3.77
2022-12-11T19:01:24.687Z,-3.94
2022-12-11T19:03:58.831Z,-4.20
2022-12-11T19:06:30.386Z,-4.33
2022-12-11T19:08:58.204Z,-4.39
2022-12-11T19:11:27.426Z,-4.41
2022-12-11T19:13:58.639Z,-4.37
2022-12-11T19:16:29.842Z,-4.47
2022-12-11T19:19:02.133Z,-4.46
2022-12-11T19:21:28.893Z,-4.63
2022-12-11T19:23:55.712Z,-4.69
2022-12-11T19:26:24.152Z,-4.62
2022-12-11T19:28:51.554Z,-4.55
2022-12-11T19:31:22.098Z,-4.54
2022-12-11T19:33:49.606Z,-4.55
2022-12-11T19:36:19.024Z,-4.59
2022-12-11T19:38:46.280Z,-4.60
2022-12-11T19:41:21.712Z,-4.73
2022-12-11T19:43:49.731Z,-4.78
2022-12-11T19:46:18.043Z,-4.62
2022-12-11T19:48:45.180Z,-4.43
2022-12-11T19:51:17.497Z,-4.41
2022-12-11T19:53:45.247Z,-4.29
2022-12-11T19:56:13.183Z,-4.20
2022-12-11T19:58:41.784Z,-4.07
2022-12-11T20:01:09.841Z,-4.06
2022-12-11T20:03:36.869Z,-4.21
2022-12-11T20:06:08.549Z,-4.20
2022-12-11T20:08:44.646Z,-4.07
2022-12-11T20:11:17.996Z,-4.05
2022-12-11T20:13:47.130Z,-4.03
2022-12-11T20:16:14.536Z,-4.05
2022-12-11T20:18:41.862Z,-4.09
2022-12-11T20:21:11.884Z,-4.10
2022-12-11T20:23:38.834Z,-4.03
2022-12-11T20:26:19.810Z,-4.00
2022-12-11T20:28:50.119Z,-3.95
2022-12-11T20:31:20.685Z,-3.95
2022-12-11T20:33:49.238Z,-4.26
2022-12-11T20:36:17.454Z,-4.27
2022-12-11T20:38:44.277Z,-4.11
2022-12-11T20:41:17.390Z,-4.09
2022-12-11T20:43:45.539Z,-4.01
2022-12-11T20:46:15.493Z,-3.94
2022-12-11T20:48:43.647Z,-3.88
2022-12-11T20:51:12.816Z,-3.93
2022-12-11T20:53:40.506Z,-4.05
2022-12-11T20:56:16.599Z,-3.84
2022-12-11T20:58:44.360Z,-3.54
2022-12-11T21:01:22.965Z,-3.61
2022-12-11T21:03:49.983Z,-3.73
2022-12-11T21:06:32.735Z,-3.73
2022-12-11T21:09:06.573Z,-3.62
2022-12-11T21:11:33.407Z,-3.52
2022-12-11T21:14:00.255Z,-3.56
2022-12-11T21:16:27.691Z,-3.76
2022-12-11T21:18:58.807Z,-3.72
2022-12-11T21:21:25.750Z,-3.56
2022-12-11T21:23:52.722Z,-3.53
2022-12-11T21:26:19.961Z,-3.63
2022-12-11T21:28:46.828Z,-3.68
2022-12-11T21:31:17.163Z,-3.55
2022-12-11T21:33:44.468Z,-3.49
2022-12-11T21:36:13.170Z,-3.50
2022-12-11T21:38:41.729Z,-3.65
2022-12-11T21:41:15.807Z,-3.46
2022-12-11T21:44:14.633Z,-3.38
2022-12-11T21:46:30.851Z,-3.50
2022-12-11T21:48:57.626Z,-3.33
2022-12-11T21:51:34.083Z,-3.06
2022-12-11T21:54:05.162Z,-3.09
2022-12-11T21:56:32.249Z,-3.21
2022-12-11T21:58:58.982Z,-3.21
2022-12-11T22:01:31.473Z,-3.14
2022-12-11T22:03:59.419Z,-3.17
2022-12-11T22:06:26.100Z,-3.25
2022-12-11T22:08:52.969Z,-3.18
2022-12-11T22:11:23.605Z,-3.00
2022-12-11T22:13:50.364Z,-2.93
2022-12-11T22:16:17.402Z,-2.88
2022-12-11T22:18:44.144Z,-2.88
2022-12-11T22:21:11.266Z,-2.84
2022-12-11T22:23:42.152Z,-2.74
2022-12-11T22:26:10.022Z,-2.75
2022-12-11T22:28:36.701Z,-2.81
2022-12-11T22:31:03.564Z,-2.85
2022-12-11T22:33:30.302Z,-2.79
2022-12-11T22:35:58.321Z,-2.80
2022-12-11T22:38:25.778Z,-2.75
2022-12-11T22:40:53.810Z,-2.75
2022-12-11T22:43:20.841Z,-2.65
2022-12-11T22:45:47.830Z,-2.52
2022-12-11T22:48:15.134Z,-2.57
2022-12-11T22:50:42.048Z,-2.59
2022-12-11T22:53:09.247Z,-2.62
2022-12-11T22:55:39.125Z,-2.61
2022-12-11T22:58:06.840Z,-2.61
2022-12-11T23:00:33.826Z,-2.60
2022-12-11T23:03:00.845Z,-2.62
2022-12-11T23:05:27.862Z,-2.67
2022-12-11T23:07:54.682Z,-2.69
2022-12-11T23:10:21.611Z,-2.72
2022-12-11T23:12:48.300Z,-2.71
2022-12-11T23:15:15.276Z,-2.48
2022-12-11T23:17:42.056Z,-2.68
2022-12-11T23:20:09.535Z,-2.82
2022-12-11T23:22:36.373Z,-2.91
2022-12-11T23:25:03.326Z,-2.95
2022-12-11T23:27:30.025Z,-3.06
2022-12-11T23:29:56.670Z,-3.27
2022-12-11T23:32:23.327Z,-3.37
2022-12-11T23:34:49.988Z,-3.29
2022-12-11T23:37:16.970Z,-3.25
2022-12-11T23:39:43.830Z,-3.26
2022-12-11T23:42:10.547Z,-3.45
2022-12-11T23:44:37.327Z,-3.75
2022-12-11T23:47:04.090Z,-3.81
2022-12-11T23:49:30.954Z,-3.70
2022-12-11T23:51:57.603Z,-3.83
2022-12-11T23:54:24.520Z,-4.03
2022-12-11T23:56:51.301Z,-4.00
2022-12-11T23:59:18.027Z,-3.91
